sensor_id;sensor_type;location;lat;lon;timestamp;P1;durP1;ratioP1;P2;durP2;ratioP2
9256;SDS011;4665;51.368;6.782;2022-07-23T00:02:05;5.50;;;5.00;;
9256;SDS011;4665;51.368;6.782;2022-07-23T00:04:31;6.93;;;5.57;;
9256;SDS011;4665;51.368;6.782;2022-07-23T00:06:57;5.70;;;5.20;;
9256;SDS011;4665;51.368;6.782;2022-07-23T00:09:22;5.60;;;5.10;;
9256;SDS011;4665;51.368;6.782;2022-07-23T00:11:48;7.70;;;5.43;;
9256;SDS011;4665;51.368;6.782;2022-07-23T00:14:13;6.33;;;5.37;;
9256;SDS011;4665;51.368;6.782;2022-07-23T00:16:38;9.87;;;6.27;;
9256;SDS011;4665;51.368;6.782;2022-07-23T00:19:04;7.87;;;5.70;;
9256;SDS011;4665;51.368;6.782;2022-07-23T00:21:29;6.77;;;5.70;;
9256;SDS011;4665;51.368;6.782;2022-07-23T00:23:55;7.53;;;5.77;;
9256;SDS011;4665;51.368;6.782;2022-07-23T00:26:20;7.10;;;5.90;;
9256;SDS011;4665;51.368;6.782;2022-07-23T00:28:46;7.17;;;6.43;;
9256;SDS011;4665;51.368;6.782;2022-07-23T00:31:11;6.97;;;6.00;;
9256;SDS011;4665;51.368;6.782;2022-07-23T00:33:36;6.50;;;6.00;;
9256;SDS011;4665;51.368;6.782;2022-07-23T00:36:02;6.90;;;6.30;;
9256;SDS011;4665;51.368;6.782;2022-07-23T00:38:27;6.37;;;5.80;;
9256;SDS011;4665;51.368;6.782;2022-07-23T00:40:53;7.07;;;6.47;;
9256;SDS011;4665;51.368;6.782;2022-07-23T00:43:20;7.33;;;6.63;;
9256;SDS011;4665;51.368;6.782;2022-07-23T00:45:46;7.00;;;6.47;;
9256;SDS011;4665;51.368;6.782;2022-07-23T00:48:12;7.00;;;6.40;;
9256;SDS011;4665;51.368;6.782;2022-07-23T00:50:37;7.27;;;6.57;;
9256;SDS011;4665;51.368;6.782;2022-07-23T00:53:02;6.63;;;6.03;;
9256;SDS011;4665;51.368;6.782;2022-07-23T00:55:29;8.27;;;7.57;;
9256;SDS011;4665;51.368;6.782;2022-07-23T00:57:55;9.23;;;8.37;;
9256;SDS011;4665;51.368;6.782;2022-07-23T01:00:20;9.20;;;8.23;;
9256;SDS011;4665;51.368;6.782;2022-07-23T01:02:46;9.23;;;8.27;;
9256;SDS011;4665;51.368;6.782;2022-07-23T01:05:11;9.80;;;8.77;;
9256;SDS011;4665;51.368;6.782;2022-07-23T01:07:37;8.53;;;7.73;;
9256;SDS011;4665;51.368;6.782;2022-07-23T01:10:04;7.57;;;6.93;;
9256;SDS011;4665;51.368;6.782;2022-07-23T01:12:50;8.23;;;7.53;;
9256;SDS011;4665;51.368;6.782;2022-07-23T01:15:15;9.73;;;8.40;;
9256;SDS011;4665;51.368;6.782;2022-07-23T01:17:41;7.97;;;7.20;;
9256;SDS011;4665;51.368;6.782;2022-07-23T01:20:06;8.67;;;7.77;;
9256;SDS011;4665;51.368;6.782;2022-07-23T01:22:32;9.13;;;8.10;;
9256;SDS011;4665;51.368;6.782;2022-07-23T01:24:57;8.60;;;7.27;;
9256;SDS011;4665;51.368;6.782;2022-07-23T01:27:23;9.13;;;7.80;;
9256;SDS011;4665;51.368;6.782;2022-07-23T01:29:48;7.03;;;6.43;;
9256;SDS011;4665;51.368;6.782;2022-07-23T01:32:13;8.60;;;7.80;;
9256;SDS011;4665;51.368;6.782;2022-07-23T01:34:39;9.23;;;7.73;;
9256;SDS011;4665;51.368;6.782;2022-07-23T01:37:05;10.47;;;7.53;;
9256;SDS011;4665;51.368;6.782;2022-07-23T01:39:31;9.07;;;7.80;;
9256;SDS011;4665;51.368;6.782;2022-07-23T01:41:56;9.33;;;8.30;;
9256;SDS011;4665;51.368;6.782;2022-07-23T01:44:22;9.40;;;8.23;;
9256;SDS011;4665;51.368;6.782;2022-07-23T01:46:47;8.47;;;7.60;;
9256;SDS011;4665;51.368;6.782;2022-07-23T01:49:12;7.20;;;6.50;;
9256;SDS011;4665;51.368;6.782;2022-07-23T01:51:38;10.90;;;7.93;;
9256;SDS011;4665;51.368;6.782;2022-07-23T01:54:23;8.07;;;7.27;;
9256;SDS011;4665;51.368;6.782;2022-07-23T01:56:48;8.07;;;7.33;;
9256;SDS011;4665;51.368;6.782;2022-07-23T01:59:14;9.87;;;7.47;;
9256;SDS011;4665;51.368;6.782;2022-07-23T02:01:39;7.00;;;6.33;;
9256;SDS011;4665;51.368;6.782;2022-07-23T02:04:05;6.27;;;5.80;;
9256;SDS011;4665;51.368;6.782;2022-07-23T02:06:30;6.80;;;6.20;;
9256;SDS011;4665;51.368;6.782;2022-07-23T02:08:55;6.77;;;6.07;;
9256;SDS011;4665;51.368;6.782;2022-07-23T02:11:21;6.30;;;5.70;;
9256;SDS011;4665;51.368;6.782;2022-07-23T02:13:46;8.23;;;7.47;;
9256;SDS011;4665;51.368;6.782;2022-07-23T02:16:11;9.37;;;7.43;;
9256;SDS011;4665;51.368;6.782;2022-07-23T02:18:37;8.40;;;7.60;;
9256;SDS011;4665;51.368;6.782;2022-07-23T02:21:02;8.33;;;7.53;;
9256;SDS011;4665;51.368;6.782;2022-07-23T02:23:28;8.60;;;7.60;;
9256;SDS011;4665;51.368;6.782;2022-07-23T02:25:53;7.63;;;6.93;;
9256;SDS011;4665;51.368;6.782;2022-07-23T02:28:19;7.10;;;6.50;;
9256;SDS011;4665;51.368;6.782;2022-07-23T02:30:44;7.70;;;7.00;;
9256;SDS011;4665;51.368;6.782;2022-07-23T02:33:09;8.57;;;7.47;;
9256;SDS011;4665;51.368;6.782;2022-07-23T02:35:35;9.03;;;7.57;;
9256;SDS011;4665;51.368;6.782;2022-07-23T02:38:01;9.30;;;8.43;;
9256;SDS011;4665;51.368;6.782;2022-07-23T02:40:26;8.83;;;8.03;;
9256;SDS011;4665;51.368;6.782;2022-07-23T02:42:52;8.73;;;7.87;;
9256;SDS011;4665;51.368;6.782;2022-07-23T02:45:17;8.30;;;7.60;;
9256;SDS011;4665;51.368;6.782;2022-07-23T02:47:42;8.73;;;7.87;;
9256;SDS011;4665;51.368;6.782;2022-07-23T02:50:08;8.77;;;8.00;;
9256;SDS011;4665;51.368;6.782;2022-07-23T02:52:33;11.60;;;8.50;;
9256;SDS011;4665;51.368;6.782;2022-07-23T02:54:59;9.77;;;8.30;;
9256;SDS011;4665;51.368;6.782;2022-07-23T02:57:24;9.87;;;8.87;;
9256;SDS011;4665;51.368;6.782;2022-07-23T02:59:50;9.97;;;8.97;;
9256;SDS011;4665;51.368;6.782;2022-07-23T03:02:15;9.60;;;8.60;;
9256;SDS011;4665;51.368;6.782;2022-07-23T03:04:40;9.23;;;8.30;;
9256;SDS011;4665;51.368;6.782;2022-07-23T03:07:07;9.40;;;8.50;;
9256;SDS011;4665;51.368;6.782;2022-07-23T03:09:32;8.50;;;7.70;;
9256;SDS011;4665;51.368;6.782;2022-07-23T03:11:58;9.03;;;8.13;;
9256;SDS011;4665;51.368;6.782;2022-07-23T03:14:23;11.10;;;8.87;;
9256;SDS011;4665;51.368;6.782;2022-07-23T03:16:49;9.23;;;8.27;;
9256;SDS011;4665;51.368;6.782;2022-07-23T03:19:15;10.00;;;9.00;;
9256;SDS011;4665;51.368;6.782;2022-07-23T03:21:40;9.97;;;8.33;;
9256;SDS011;4665;51.368;6.782;2022-07-23T03:24:09;9.60;;;8.63;;
9256;SDS011;4665;51.368;6.782;2022-07-23T03:26:35;10.73;;;8.80;;
9256;SDS011;4665;51.368;6.782;2022-07-23T03:29:01;10.13;;;8.63;;
9256;SDS011;4665;51.368;6.782;2022-07-23T03:31:28;13.03;;;8.53;;
9256;SDS011;4665;51.368;6.782;2022-07-23T03:33:55;11.53;;;8.20;;
9256;SDS011;4665;51.368;6.782;2022-07-23T03:36:20;8.67;;;7.80;;
9256;SDS011;4665;51.368;6.782;2022-07-23T03:38:46;7.67;;;7.07;;
9256;SDS011;4665;51.368;6.782;2022-07-23T03:41:11;10.73;;;8.10;;
9256;SDS011;4665;51.368;6.782;2022-07-23T03:43:36;9.27;;;7.60;;
9256;SDS011;4665;51.368;6.782;2022-07-23T03:46:02;7.90;;;7.20;;
9256;SDS011;4665;51.368;6.782;2022-07-23T03:48:27;8.03;;;7.23;;
9256;SDS011;4665;51.368;6.782;2022-07-23T03:50:52;6.73;;;6.17;;
9256;SDS011;4665;51.368;6.782;2022-07-23T03:53:18;7.40;;;6.70;;
9256;SDS011;4665;51.368;6.782;2022-07-23T03:55:43;8.10;;;7.40;;
9256;SDS011;4665;51.368;6.782;2022-07-23T03:58:09;7.00;;;6.40;;
9256;SDS011;4665;51.368;6.782;2022-07-23T04:00:34;7.40;;;6.70;;
9256;SDS011;4665;51.368;6.782;2022-07-23T04:02:59;7.57;;;6.93;;
9256;SDS011;4665;51.368;6.782;2022-07-23T04:05:25;8.03;;;7.23;;
9256;SDS011;4665;51.368;6.782;2022-07-23T04:07:50;8.37;;;7.63;;
9256;SDS011;4665;51.368;6.782;2022-07-23T04:10:16;8.10;;;7.40;;
9256;SDS011;4665;51.368;6.782;2022-07-23T04:12:41;7.13;;;6.50;;
9256;SDS011;4665;51.368;6.782;2022-07-23T04:15:07;8.23;;;7.43;;
9256;SDS011;4665;51.368;6.782;2022-07-23T04:17:33;9.87;;;8.20;;
9256;SDS011;4665;51.368;6.782;2022-07-23T04:19:59;8.80;;;7.90;;
9256;SDS011;4665;51.368;6.782;2022-07-23T04:22:24;11.00;;;8.43;;
9256;SDS011;4665;51.368;6.782;2022-07-23T04:24:50;10.17;;;8.27;;
9256;SDS011;4665;51.368;6.782;2022-07-23T04:27:15;8.30;;;7.50;;
9256;SDS011;4665;51.368;6.782;2022-07-23T04:29:41;9.40;;;8.53;;
9256;SDS011;4665;51.368;6.782;2022-07-23T04:32:06;9.97;;;8.97;;
9256;SDS011;4665;51.368;6.782;2022-07-23T04:34:32;9.70;;;8.53;;
9256;SDS011;4665;51.368;6.782;2022-07-23T04:36:57;11.93;;;8.77;;
9256;SDS011;4665;51.368;6.782;2022-07-23T04:39:23;10.23;;;9.17;;
9256;SDS011;4665;51.368;6.782;2022-07-23T04:41:48;10.37;;;8.87;;
9256;SDS011;4665;51.368;6.782;2022-07-23T04:44:14;11.67;;;8.70;;
9256;SDS011;4665;51.368;6.782;2022-07-23T04:46:39;10.30;;;9.30;;
9256;SDS011;4665;51.368;6.782;2022-07-23T04:49:05;9.20;;;8.47;;
9256;SDS011;4665;51.368;6.782;2022-07-23T04:51:30;9.87;;;8.90;;
9256;SDS011;4665;51.368;6.782;2022-07-23T04:53:56;10.13;;;9.13;;
9256;SDS011;4665;51.368;6.782;2022-07-23T04:56:21;9.33;;;8.43;;
9256;SDS011;4665;51.368;6.782;2022-07-23T04:58:47;12.43;;;8.53;;
9256;SDS011;4665;51.368;6.782;2022-07-23T05:01:12;9.30;;;8.50;;
9256;SDS011;4665;51.368;6.782;2022-07-23T05:03:38;10.30;;;8.87;;
9256;SDS011;4665;51.368;6.782;2022-07-23T05:06:03;10.93;;;8.93;;
9256;SDS011;4665;51.368;6.782;2022-07-23T05:08:29;9.03;;;8.23;;
9256;SDS011;4665;51.368;6.782;2022-07-23T05:10:54;9.50;;;8.60;;
9256;SDS011;4665;51.368;6.782;2022-07-23T05:13:20;11.60;;;9.40;;
9256;SDS011;4665;51.368;6.782;2022-07-23T05:15:46;10.17;;;9.27;;
9256;SDS011;4665;51.368;6.782;2022-07-23T05:18:12;10.70;;;9.80;;
9256;SDS011;4665;51.368;6.782;2022-07-23T05:20:37;12.63;;;9.67;;
9256;SDS011;4665;51.368;6.782;2022-07-23T05:23:03;10.47;;;9.47;;
9256;SDS011;4665;51.368;6.782;2022-07-23T05:25:29;12.87;;;9.70;;
9256;SDS011;4665;51.368;6.782;2022-07-23T05:27:54;10.53;;;9.40;;
9256;SDS011;4665;51.368;6.782;2022-07-23T05:30:20;10.97;;;9.67;;
9256;SDS011;4665;51.368;6.782;2022-07-23T05:32:46;10.63;;;9.33;;
9256;SDS011;4665;51.368;6.782;2022-07-23T05:35:11;12.87;;;10.23;;
9256;SDS011;4665;51.368;6.782;2022-07-23T05:37:37;11.63;;;10.63;;
9256;SDS011;4665;51.368;6.782;2022-07-23T05:40:06;11.77;;;10.57;;
9256;SDS011;4665;51.368;6.782;2022-07-23T05:42:33;13.80;;;10.03;;
9256;SDS011;4665;51.368;6.782;2022-07-23T05:45:02;13.27;;;11.23;;
9256;SDS011;4665;51.368;6.782;2022-07-23T05:47:27;13.00;;;10.83;;
9256;SDS011;4665;51.368;6.782;2022-07-23T05:49:53;14.03;;;12.13;;
9256;SDS011;4665;51.368;6.782;2022-07-23T05:52:19;12.97;;;11.33;;
9256;SDS011;4665;51.368;6.782;2022-07-23T05:54:44;13.43;;;11.67;;
9256;SDS011;4665;51.368;6.782;2022-07-23T05:57:09;14.20;;;12.70;;
9256;SDS011;4665;51.368;6.782;2022-07-23T05:59:35;19.43;;;12.33;;
9256;SDS011;4665;51.368;6.782;2022-07-23T06:02:00;13.87;;;12.37;;
9256;SDS011;4665;51.368;6.782;2022-07-23T06:04:26;14.70;;;12.43;;
9256;SDS011;4665;51.368;6.782;2022-07-23T06:06:51;13.47;;;12.17;;
9256;SDS011;4665;51.368;6.782;2022-07-23T06:09:17;14.53;;;13.00;;
9256;SDS011;4665;51.368;6.782;2022-07-23T06:11:43;15.07;;;13.40;;
9256;SDS011;4665;51.368;6.782;2022-07-23T06:14:08;13.37;;;12.00;;
9256;SDS011;4665;51.368;6.782;2022-07-23T06:16:34;13.63;;;12.23;;
9256;SDS011;4665;51.368;6.782;2022-07-23T06:18:59;13.93;;;12.43;;
9256;SDS011;4665;51.368;6.782;2022-07-23T06:21:24;17.27;;;14.77;;
9256;SDS011;4665;51.368;6.782;2022-07-23T06:23:50;17.07;;;14.03;;
9256;SDS011;4665;51.368;6.782;2022-07-23T06:26:15;16.17;;;14.43;;
9256;SDS011;4665;51.368;6.782;2022-07-23T06:28:41;14.80;;;13.27;;
9256;SDS011;4665;51.368;6.782;2022-07-23T06:31:06;19.37;;;14.60;;
9256;SDS011;4665;51.368;6.782;2022-07-23T06:33:33;19.10;;;14.67;;
9256;SDS011;4665;51.368;6.782;2022-07-23T06:35:59;18.57;;;15.13;;
9256;SDS011;4665;51.368;6.782;2022-07-23T06:38:24;17.87;;;14.73;;
9256;SDS011;4665;51.368;6.782;2022-07-23T06:40:49;15.73;;;14.10;;
9256;SDS011;4665;51.368;6.782;2022-07-23T06:43:15;14.83;;;12.97;;
9256;SDS011;4665;51.368;6.782;2022-07-23T06:45:41;15.90;;;14.30;;
9256;SDS011;4665;51.368;6.782;2022-07-23T06:48:06;17.43;;;15.23;;
9256;SDS011;4665;51.368;6.782;2022-07-23T06:50:31;16.63;;;14.47;;
9256;SDS011;4665;51.368;6.782;2022-07-23T06:52:57;17.53;;;15.47;;
9256;SDS011;4665;51.368;6.782;2022-07-23T06:55:22;16.50;;;14.80;;
9256;SDS011;4665;51.368;6.782;2022-07-23T06:57:48;15.93;;;14.33;;
9256;SDS011;4665;51.368;6.782;2022-07-23T07:00:13;15.83;;;14.10;;
9256;SDS011;4665;51.368;6.782;2022-07-23T07:02:39;18.33;;;15.07;;
9256;SDS011;4665;51.368;6.782;2022-07-23T07:05:04;16.27;;;14.53;;
9256;SDS011;4665;51.368;6.782;2022-07-23T07:07:30;15.63;;;13.80;;
9256;SDS011;4665;51.368;6.782;2022-07-23T07:09:55;18.43;;;14.03;;
9256;SDS011;4665;51.368;6.782;2022-07-23T07:12:21;15.17;;;13.57;;
9256;SDS011;4665;51.368;6.782;2022-07-23T07:14:46;16.83;;;15.10;;
9256;SDS011;4665;51.368;6.782;2022-07-23T07:17:11;16.37;;;14.73;;
9256;SDS011;4665;51.368;6.782;2022-07-23T07:19:37;17.73;;;15.73;;
9256;SDS011;4665;51.368;6.782;2022-07-23T07:22:02;16.50;;;14.53;;
9256;SDS011;4665;51.368;6.782;2022-07-23T07:24:28;18.00;;;15.47;;
9256;SDS011;4665;51.368;6.782;2022-07-23T07:26:53;19.50;;;16.40;;
9256;SDS011;4665;51.368;6.782;2022-07-23T07:29:18;18.83;;;15.70;;
9256;SDS011;4665;51.368;6.782;2022-07-23T07:31:44;17.90;;;16.10;;
9256;SDS011;4665;51.368;6.782;2022-07-23T07:34:09;17.03;;;15.23;;
9256;SDS011;4665;51.368;6.782;2022-07-23T07:36:35;19.90;;;16.77;;
9256;SDS011;4665;51.368;6.782;2022-07-23T07:39:02;20.97;;;16.67;;
9256;SDS011;4665;51.368;6.782;2022-07-23T07:41:29;19.03;;;15.53;;
9256;SDS011;4665;51.368;6.782;2022-07-23T07:43:56;18.50;;;16.13;;
9256;SDS011;4665;51.368;6.782;2022-07-23T07:46:21;18.27;;;15.33;;
9256;SDS011;4665;51.368;6.782;2022-07-23T07:48:49;17.30;;;15.50;;
9256;SDS011;4665;51.368;6.782;2022-07-23T07:51:17;16.70;;;13.50;;
9256;SDS011;4665;51.368;6.782;2022-07-23T07:53:42;15.50;;;14.00;;
9256;SDS011;4665;51.368;6.782;2022-07-23T07:56:08;16.43;;;13.60;;
9256;SDS011;4665;51.368;6.782;2022-07-23T07:58:33;18.00;;;14.17;;
9256;SDS011;4665;51.368;6.782;2022-07-23T08:00:59;16.53;;;15.03;;
9256;SDS011;4665;51.368;6.782;2022-07-23T08:03:25;17.10;;;15.20;;
9256;SDS011;4665;51.368;6.782;2022-07-23T08:05:51;19.13;;;17.33;;
9256;SDS011;4665;51.368;6.782;2022-07-23T08:08:16;17.43;;;15.83;;
9256;SDS011;4665;51.368;6.782;2022-07-23T08:10:42;15.97;;;14.37;;
9256;SDS011;4665;51.368;6.782;2022-07-23T08:13:10;14.60;;;12.87;;
9256;SDS011;4665;51.368;6.782;2022-07-23T08:15:39;12.73;;;8.73;;
9256;SDS011;4665;51.368;6.782;2022-07-23T08:18:04;8.37;;;7.57;;
9256;SDS011;4665;51.368;6.782;2022-07-23T08:20:29;7.40;;;6.70;;
9256;SDS011;4665;51.368;6.782;2022-07-23T08:22:56;8.93;;;8.00;;
9256;SDS011;4665;51.368;6.782;2022-07-23T08:25:29;7.90;;;7.10;;
9256;SDS011;4665;51.368;6.782;2022-07-23T08:28:00;8.40;;;7.10;;
9256;SDS011;4665;51.368;6.782;2022-07-23T08:30:28;9.93;;;7.70;;
9256;SDS011;4665;51.368;6.782;2022-07-23T08:35:24;7.27;;;6.03;;
9256;SDS011;4665;51.368;6.782;2022-07-23T08:37:57;9.70;;;6.07;;
9256;SDS011;4665;51.368;6.782;2022-07-23T08:40:27;7.03;;;5.37;;
9256;SDS011;4665;51.368;6.782;2022-07-23T08:42:55;7.77;;;5.80;;
9256;SDS011;4665;51.368;6.782;2022-07-23T08:45:21;5.47;;;4.90;;
9256;SDS011;4665;51.368;6.782;2022-07-23T08:47:48;6.60;;;4.73;;
9256;SDS011;4665;51.368;6.782;2022-07-23T08:50:15;4.87;;;4.43;;
9256;SDS011;4665;51.368;6.782;2022-07-23T08:52:40;4.70;;;4.23;;
9256;SDS011;4665;51.368;6.782;2022-07-23T08:55:07;4.10;;;3.60;;
9256;SDS011;4665;51.368;6.782;2022-07-23T08:57:33;5.03;;;3.93;;
9256;SDS011;4665;51.368;6.782;2022-07-23T08:59:59;5.70;;;4.20;;
9256;SDS011;4665;51.368;6.782;2022-07-23T09:02:24;8.13;;;4.17;;
9256;SDS011;4665;51.368;6.782;2022-07-23T09:04:50;4.87;;;4.13;;
9256;SDS011;4665;51.368;6.782;2022-07-23T09:07:15;5.33;;;4.47;;
9256;SDS011;4665;51.368;6.782;2022-07-23T09:09:40;4.33;;;3.93;;
9256;SDS011;4665;51.368;6.782;2022-07-23T09:12:07;5.97;;;3.87;;
9256;SDS011;4665;51.368;6.782;2022-07-23T09:17:12;6.67;;;3.60;;
9256;SDS011;4665;51.368;6.782;2022-07-23T09:19:39;3.90;;;3.30;;
9256;SDS011;4665;51.368;6.782;2022-07-23T09:22:18;5.20;;;3.40;;
9256;SDS011;4665;51.368;6.782;2022-07-23T09:27:51;4.77;;;4.07;;
9256;SDS011;4665;51.368;6.782;2022-07-23T09:30:23;5.50;;;4.63;;
9256;SDS011;4665;51.368;6.782;2022-07-23T09:33:12;4.90;;;4.00;;
9256;SDS011;4665;51.368;6.782;2022-07-23T09:35:47;4.90;;;4.50;;
9256;SDS011;4665;51.368;6.782;2022-07-23T09:38:18;5.73;;;4.20;;
9256;SDS011;4665;51.368;6.782;2022-07-23T09:40:45;5.80;;;4.80;;
9256;SDS011;4665;51.368;6.782;2022-07-23T09:43:12;5.00;;;4.33;;
9256;SDS011;4665;51.368;6.782;2022-07-23T09:45:51;5.53;;;4.03;;
9256;SDS011;4665;51.368;6.782;2022-07-23T09:48:16;4.80;;;4.20;;
9256;SDS011;4665;51.368;6.782;2022-07-23T09:50:42;4.23;;;3.77;;
9256;SDS011;4665;51.368;6.782;2022-07-23T09:53:09;3.90;;;3.60;;
9256;SDS011;4665;51.368;6.782;2022-07-23T09:55:48;4.37;;;3.40;;
9256;SDS011;4665;51.368;6.782;2022-07-23T09:58:14;3.57;;;3.37;;
9256;SDS011;4665;51.368;6.782;2022-07-23T10:00:41;4.67;;;3.73;;
9256;SDS011;4665;51.368;6.782;2022-07-23T10:03:09;4.83;;;3.87;;
9256;SDS011;4665;51.368;6.782;2022-07-23T10:05:36;4.90;;;3.00;;
9256;SDS011;4665;51.368;6.782;2022-07-23T10:08:02;4.40;;;2.97;;
9256;SDS011;4665;51.368;6.782;2022-07-23T10:10:28;6.17;;;3.20;;
9256;SDS011;4665;51.368;6.782;2022-07-23T10:12:55;2.93;;;2.73;;
9256;SDS011;4665;51.368;6.782;2022-07-23T10:15:34;2.63;;;2.43;;
9256;SDS011;4665;51.368;6.782;2022-07-23T10:18:00;4.20;;;3.50;;
9256;SDS011;4665;51.368;6.782;2022-07-23T10:20:26;3.30;;;3.00;;
9256;SDS011;4665;51.368;6.782;2022-07-23T10:26:03;3.17;;;2.87;;
9256;SDS011;4665;51.368;6.782;2022-07-23T10:28:42;4.50;;;3.33;;
9256;SDS011;4665;51.368;6.782;2022-07-23T10:36:49;3.20;;;3.00;;
9256;SDS011;4665;51.368;6.782;2022-07-23T10:47:11;3.30;;;2.30;;
9256;SDS011;4665;51.368;6.782;2022-07-23T10:50:36;3.33;;;3.03;;
9256;SDS011;4665;51.368;6.782;2022-07-23T10:57:57;6.20;;;2.60;;
9256;SDS011;4665;51.368;6.782;2022-07-23T11:00:23;2.70;;;2.47;;
9256;SDS011;4665;51.368;6.782;2022-07-23T11:02:51;4.50;;;2.70;;
9256;SDS011;4665;51.368;6.782;2022-07-23T11:05:19;3.60;;;2.90;;
9256;SDS011;4665;51.368;6.782;2022-07-23T11:10:35;2.23;;;2.00;;
9256;SDS011;4665;51.368;6.782;2022-07-23T11:26:50;2.83;;;2.60;;
9256;SDS011;4665;51.368;6.782;2022-07-23T11:31:54;2.50;;;2.30;;
9256;SDS011;4665;51.368;6.782;2022-07-23T11:34:28;4.00;;;2.70;;
9256;SDS011;4665;51.368;6.782;2022-07-23T11:36:58;2.73;;;2.53;;
9256;SDS011;4665;51.368;6.782;2022-07-23T11:39:25;2.70;;;2.50;;
9256;SDS011;4665;51.368;6.782;2022-07-23T11:41:52;2.63;;;2.40;;
9256;SDS011;4665;51.368;6.782;2022-07-23T11:44:51;2.93;;;2.40;;
9256;SDS011;4665;51.368;6.782;2022-07-23T11:47:11;4.20;;;3.00;;
9256;SDS011;4665;51.368;6.782;2022-07-23T11:49:37;2.27;;;2.17;;
9256;SDS011;4665;51.368;6.782;2022-07-23T11:52:15;3.33;;;2.90;;
9256;SDS011;4665;51.368;6.782;2022-07-23T11:57:37;2.40;;;2.30;;
9256;SDS011;4665;51.368;6.782;2022-07-23T12:00:08;7.10;;;2.80;;
9256;SDS011;4665;51.368;6.782;2022-07-23T12:02:40;2.93;;;2.63;;
9256;SDS011;4665;51.368;6.782;2022-07-23T12:05:07;4.57;;;2.60;;
9256;SDS011;4665;51.368;6.782;2022-07-23T12:07:37;3.97;;;2.80;;
9256;SDS011;4665;51.368;6.782;2022-07-23T12:10:12;4.13;;;2.90;;
9256;SDS011;4665;51.368;6.782;2022-07-23T12:12:45;3.90;;;2.90;;
9256;SDS011;4665;51.368;6.782;2022-07-23T12:15:12;3.13;;;2.63;;
9256;SDS011;4665;51.368;6.782;2022-07-23T12:17:39;2.57;;;2.40;;
9256;SDS011;4665;51.368;6.782;2022-07-23T12:20:07;3.87;;;2.93;;
9256;SDS011;4665;51.368;6.782;2022-07-23T12:22:44;2.27;;;2.03;;
9256;SDS011;4665;51.368;6.782;2022-07-23T12:25:16;4.47;;;3.40;;
9256;SDS011;4665;51.368;6.782;2022-07-23T12:27:43;3.73;;;3.43;;
9256;SDS011;4665;51.368;6.782;2022-07-23T12:30:16;4.13;;;3.13;;
9256;SDS011;4665;51.368;6.782;2022-07-23T12:32:46;2.90;;;2.70;;
9256;SDS011;4665;51.368;6.782;2022-07-23T12:35:14;3.00;;;2.80;;
9256;SDS011;4665;51.368;6.782;2022-07-23T12:37:41;3.00;;;2.80;;
9256;SDS011;4665;51.368;6.782;2022-07-23T12:42:50;2.50;;;2.40;;
9256;SDS011;4665;51.368;6.782;2022-07-23T12:45:18;2.90;;;2.80;;
9256;SDS011;4665;51.368;6.782;2022-07-23T12:48:00;3.50;;;2.70;;
9256;SDS011;4665;51.368;6.782;2022-07-23T12:53:11;3.17;;;2.97;;
9256;SDS011;4665;51.368;6.782;2022-07-23T12:55:39;3.47;;;2.90;;
9256;SDS011;4665;51.368;6.782;2022-07-23T12:58:10;3.00;;;2.73;;
9256;SDS011;4665;51.368;6.782;2022-07-23T13:00:54;3.63;;;3.30;;
9256;SDS011;4665;51.368;6.782;2022-07-23T13:05:55;2.13;;;2.03;;
9256;SDS011;4665;51.368;6.782;2022-07-23T13:08:22;2.10;;;2.00;;
9256;SDS011;4665;51.368;6.782;2022-07-23T13:10:48;2.27;;;2.17;;
9256;SDS011;4665;51.368;6.782;2022-07-23T13:13:16;1.90;;;1.80;;
9256;SDS011;4665;51.368;6.782;2022-07-23T13:15:45;2.67;;;2.47;;
9256;SDS011;4665;51.368;6.782;2022-07-23T13:18:11;5.67;;;2.57;;
9256;SDS011;4665;51.368;6.782;2022-07-23T13:20:37;2.90;;;2.60;;
9256;SDS011;4665;51.368;6.782;2022-07-23T13:23:04;2.77;;;2.43;;
9256;SDS011;4665;51.368;6.782;2022-07-23T13:25:30;2.43;;;2.23;;
9256;SDS011;4665;51.368;6.782;2022-07-23T13:27:56;2.57;;;2.47;;
9256;SDS011;4665;51.368;6.782;2022-07-23T13:30:21;3.67;;;2.70;;
9256;SDS011;4665;51.368;6.782;2022-07-23T13:32:47;5.63;;;2.60;;
9256;SDS011;4665;51.368;6.782;2022-07-23T13:35:13;2.87;;;2.67;;
9256;SDS011;4665;51.368;6.782;2022-07-23T13:37:39;3.43;;;2.27;;
9256;SDS011;4665;51.368;6.782;2022-07-23T13:40:05;5.10;;;2.87;;
9256;SDS011;4665;51.368;6.782;2022-07-23T13:42:31;2.60;;;2.40;;
9256;SDS011;4665;51.368;6.782;2022-07-23T13:44:56;2.47;;;2.30;;
9256;SDS011;4665;51.368;6.782;2022-07-23T13:47:22;2.50;;;2.30;;
9256;SDS011;4665;51.368;6.782;2022-07-23T13:49:47;2.67;;;2.47;;
9256;SDS011;4665;51.368;6.782;2022-07-23T13:52:13;2.93;;;2.73;;
9256;SDS011;4665;51.368;6.782;2022-07-23T13:54:38;3.30;;;2.80;;
9256;SDS011;4665;51.368;6.782;2022-07-23T13:57:04;2.67;;;2.20;;
9256;SDS011;4665;51.368;6.782;2022-07-23T13:59:30;2.97;;;2.67;;
9256;SDS011;4665;51.368;6.782;2022-07-23T14:02:02;2.10;;;2.00;;
9256;SDS011;4665;51.368;6.782;2022-07-23T14:04:28;2.77;;;2.57;;
9256;SDS011;4665;51.368;6.782;2022-07-23T14:06:54;2.77;;;2.43;;
9256;SDS011;4665;51.368;6.782;2022-07-23T14:09:20;3.27;;;2.93;;
9256;SDS011;4665;51.368;6.782;2022-07-23T14:11:47;3.63;;;2.57;;
9256;SDS011;4665;51.368;6.782;2022-07-23T14:14:12;2.47;;;2.30;;
9256;SDS011;4665;51.368;6.782;2022-07-23T14:16:38;2.47;;;2.30;;
9256;SDS011;4665;51.368;6.782;2022-07-23T14:19:03;3.23;;;2.80;;
9256;SDS011;4665;51.368;6.782;2022-07-23T14:21:29;3.00;;;2.10;;
9256;SDS011;4665;51.368;6.782;2022-07-23T14:23:54;2.30;;;2.20;;
9256;SDS011;4665;51.368;6.782;2022-07-23T14:26:19;2.70;;;2.50;;
9256;SDS011;4665;51.368;6.782;2022-07-23T14:28:45;2.80;;;2.60;;
9256;SDS011;4665;51.368;6.782;2022-07-23T14:31:11;2.40;;;2.30;;
9256;SDS011;4665;51.368;6.782;2022-07-23T14:33:36;3.03;;;2.73;;
9256;SDS011;4665;51.368;6.782;2022-07-23T14:36:02;2.47;;;2.27;;
9256;SDS011;4665;51.368;6.782;2022-07-23T14:38:27;3.30;;;2.30;;
9256;SDS011;4665;51.368;6.782;2022-07-23T14:40:55;2.30;;;2.20;;
9256;SDS011;4665;51.368;6.782;2022-07-23T14:43:21;2.77;;;2.57;;
9256;SDS011;4665;51.368;6.782;2022-07-23T14:45:47;2.70;;;2.43;;
9256;SDS011;4665;51.368;6.782;2022-07-23T14:48:12;2.77;;;2.50;;
9256;SDS011;4665;51.368;6.782;2022-07-23T14:50:38;11.50;;;2.73;;
9256;SDS011;4665;51.368;6.782;2022-07-23T14:53:03;2.60;;;2.40;;
9256;SDS011;4665;51.368;6.782;2022-07-23T14:55:30;3.77;;;2.37;;
9256;SDS011;4665;51.368;6.782;2022-07-23T14:57:56;2.77;;;2.37;;
9256;SDS011;4665;51.368;6.782;2022-07-23T15:00:22;15.73;;;2.70;;
9256;SDS011;4665;51.368;6.782;2022-07-23T15:02:47;2.63;;;2.43;;
9256;SDS011;4665;51.368;6.782;2022-07-23T15:05:13;3.30;;;2.60;;
9256;SDS011;4665;51.368;6.782;2022-07-23T15:07:38;2.97;;;2.77;;
9256;SDS011;4665;51.368;6.782;2022-07-23T15:10:04;3.73;;;2.53;;
9256;SDS011;4665;51.368;6.782;2022-07-23T15:12:30;3.17;;;2.50;;
9256;SDS011;4665;51.368;6.782;2022-07-23T15:14:55;2.57;;;2.40;;
9256;SDS011;4665;51.368;6.782;2022-07-23T15:17:21;2.50;;;2.40;;
9256;SDS011;4665;51.368;6.782;2022-07-23T15:19:46;2.47;;;2.30;;
9256;SDS011;4665;51.368;6.782;2022-07-23T15:22:12;3.20;;;2.80;;
9256;SDS011;4665;51.368;6.782;2022-07-23T15:24:38;2.70;;;2.47;;
9256;SDS011;4665;51.368;6.782;2022-07-23T15:27:03;2.83;;;2.63;;
9256;SDS011;4665;51.368;6.782;2022-07-23T15:29:28;2.60;;;2.40;;
9256;SDS011;4665;51.368;6.782;2022-07-23T15:31:54;2.97;;;2.77;;
9256;SDS011;4665;51.368;6.782;2022-07-23T15:34:19;2.60;;;2.40;;
9256;SDS011;4665;51.368;6.782;2022-07-23T15:36:45;2.97;;;2.70;;
9256;SDS011;4665;51.368;6.782;2022-07-23T15:39:10;2.90;;;2.70;;
9256;SDS011;4665;51.368;6.782;2022-07-23T15:41:36;4.53;;;2.60;;
9256;SDS011;4665;51.368;6.782;2022-07-23T15:44:02;2.77;;;2.57;;
9256;SDS011;4665;51.368;6.782;2022-07-23T15:46:27;3.23;;;2.67;;
9256;SDS011;4665;51.368;6.782;2022-07-23T15:48:53;2.90;;;2.63;;
9256;SDS011;4665;51.368;6.782;2022-07-23T15:51:19;2.50;;;2.30;;
9256;SDS011;4665;51.368;6.782;2022-07-23T15:53:44;6.77;;;3.27;;
9256;SDS011;4665;51.368;6.782;2022-07-23T15:56:10;2.90;;;2.60;;
9256;SDS011;4665;51.368;6.782;2022-07-23T15:58:36;2.40;;;2.30;;
9256;SDS011;4665;51.368;6.782;2022-07-23T16:01:03;2.40;;;2.30;;
9256;SDS011;4665;51.368;6.782;2022-07-23T16:03:31;5.37;;;3.30;;
9256;SDS011;4665;51.368;6.782;2022-07-23T16:06:00;3.37;;;2.80;;
9256;SDS011;4665;51.368;6.782;2022-07-23T16:08:26;2.73;;;2.57;;